Site contains unofficial IBTrACS data. Visit the IBTrACS Website to access archived data.

1865 NOT_NAMED (1865042S12095)


IBTrACS version v04r00. Visit IBTrACS website for data access.
Please direct all questions to the IBTrACS Q and A forum

Storm track - Intensity - Wind Radii - Intensity Data - Source Data - All data

Summary Information

Storm ID 1865042S12095
Start Feb 11 06Z
End Feb 17 06Z
ATCF IDs
Track status Best track data.

Storm track plot

Map of storm track

Intensity plots

No Intensity information for this storm


Radial wind information

No radial wind information for this storm


Position and Intensity Table

BASIN ISO_TIME_________ NATURE LAT LON
degrees north degrees east
SI 1865-02-11 06:00:00 NR -12.00 94.60
SI 09:00:00 NR -12.26 94.00
SI 12:00:00 NR -12.52 93.40
SI 15:00:00 NR -12.76 92.82
SI 18:00:00 NR -13.00 92.25
SI 21:00:00 NR -13.23 91.71
SI 1865-02-12 00:00:00 NR -13.44 91.20
SI 03:00:00 NR -13.63 90.73
SI 06:00:00 NR -13.80 90.30
SI 09:00:00 NR -13.95 89.92
SI 12:00:00 NR -14.08 89.58
SI 15:00:00 NR -14.21 89.26
SI 18:00:00 NR -14.33 88.95
SI 21:00:00 NR -14.47 88.64
SI 1865-02-13 00:00:00 NR -14.62 88.30
SI 03:00:00 NR -14.79 87.92
SI 06:00:00 NR -15.00 87.50
SI 09:00:00 NR -15.22 87.02
SI 12:00:00 NR -15.46 86.49
SI 15:00:00 NR -15.73 85.92
SI 18:00:00 NR -16.03 85.31
SI 21:00:00 NR -16.37 84.65
SI 1865-02-14 00:00:00 NR -16.74 83.95
SI 03:00:00 NR -17.15 83.20
SI 06:00:00 NR -17.60 82.40
SI 09:00:00 NR -18.15 81.47
SI 12:00:00 NR -18.74 80.47
SI 15:00:00 NR -19.37 79.42
SI 18:00:00 NR -20.01 78.36
SI 21:00:00 NR -20.64 77.32
SI 1865-02-15 00:00:00 NR -21.24 76.32
SI 03:00:00 NR -21.80 75.41
SI 06:00:00 NR -22.30 74.60
SI 09:00:00 NR -22.69 73.98
SI 12:00:00 NR -23.03 73.47
SI 15:00:00 NR -23.33 73.04
SI 18:00:00 NR -23.59 72.70
SI 21:00:00 NR -23.82 72.41
SI 1865-02-16 00:00:00 NR -24.03 72.18
SI 03:00:00 NR -24.22 71.98
SI 06:00:00 NR -24.40 71.80
SI 09:00:00 NR -24.57 71.63
SI 12:00:00 NR -24.74 71.46
SI 15:00:00 NR -24.91 71.29
SI 18:00:00 NR -25.07 71.13
SI 21:00:00 NR -25.23 70.97
SI 1865-02-17 00:00:00 NR -25.39 70.81
SI 03:00:00 NR -25.54 70.66
SI 06:00:00 NR -25.70 70.50

Source Information

Agency Information
USA
TOKYO
CMA
HKO
NEWDELHI
REUNION WMO-Best-Tracks.txt:Line=600:xxxx865086
BOM
NADI
WELLINGTON
DS824
TD9636
TD9635
NEUMANN
MLC

All available IBTrACS Data

SEASON BASIN SUBBASIN ISO_TIME_________ NATURE LAT LON WMO AGENCY DIST2LAND LANDFALL IFLAG USA SSHS REUNION LAT REUNION LON REUNION TYPE REUNION TNUM STORM SPEED STORM DIR
Year degrees north degrees east km km 1 degrees north degrees east 1 kts degrees
1865 SI WA 1865-02-11 06:00:00 NR -12.00 94.60 1233 1233 _____O________ -1 -12.00 94.60 99 9.90 13 246
1865 SI WA 09:00:00 NR -12.26 94.00 1303 1303 _____P________ -1 -12.26 94.00 99 13 246
1865 SI WA 12:00:00 NR -12.52 93.40 1353 1353 _____P________ -1 -12.52 93.40 99 13 246
1865 SI WA 15:00:00 NR -12.76 92.82 1413 1413 _____P________ -1 -12.76 92.82 99 12 247
1865 SI WA 18:00:00 NR -13.00 92.25 1459 1459 _____P________ -1 -13.00 92.25 99 12 247
1865 SI WA 21:00:00 NR -13.23 91.71 1512 1512 _____P________ -1 -13.23 91.71 99 11 247
1865 SI WA 1865-02-12 00:00:00 NR -13.44 91.20 1561 1561 _____P________ -1 -13.44 91.20 99 10 247
1865 SI WA 03:00:00 NR -13.63 90.73 1610 1610 _____P________ -1 -13.63 90.73 99 9 247
1865 SI WA 06:00:00 NR -13.80 90.30 1653 1653 _____O________ -1 -13.80 90.30 99 9.90 8 248
1865 SI MM 09:00:00 NR -13.95 89.92 1687 1687 _____P________ -1 -13.95 89.92 99 8 248
1865 SI MM 12:00:00 NR -14.08 89.58 1725 1725 _____P________ -1 -14.08 89.58 99 7 248
1865 SI MM 15:00:00 NR -14.21 89.26 1753 1753 _____P________ -1 -14.21 89.26 99 7 248
1865 SI MM 18:00:00 NR -14.33 88.95 1782 1782 _____P________ -1 -14.33 88.95 99 7 247
1865 SI MM 21:00:00 NR -14.47 88.64 1827 1827 _____P________ -1 -14.47 88.64 99 7 246
1865 SI MM 1865-02-13 00:00:00 NR -14.62 88.30 1856 1856 _____P________ -1 -14.62 88.30 99 8 245
1865 SI MM 03:00:00 NR -14.79 87.92 1901 1901 _____P________ -1 -14.79 87.92 99 9 244
1865 SI MM 06:00:00 NR -15.00 87.50 1946 1946 _____O________ -1 -15.00 87.50 99 9.90 10 244
1865 SI MM 09:00:00 NR -15.22 87.02 1998 1998 _____P________ -1 -15.22 87.02 99 11 245
1865 SI MM 12:00:00 NR -15.46 86.49 2059 2059 _____P________ -1 -15.46 86.49 99 12 244
1865 SI MM 15:00:00 NR -15.73 85.92 2119 2119 _____P________ -1 -15.73 85.92 99 13 243
1865 SI MM 18:00:00 NR -16.03 85.31 2188 2188 _____P________ -1 -16.03 85.31 99 14 243
1865 SI MM 21:00:00 NR -16.37 84.65 2265 2265 _____P________ -1 -16.37 84.65 99 15 242
1865 SI MM 1865-02-14 00:00:00 NR -16.74 83.95 2349 2349 _____P________ -1 -16.74 83.95 99 16 241
1865 SI MM 03:00:00 NR -17.15 83.20 2434 2434 _____P________ -1 -17.15 83.20 99 17 240
1865 SI MM 06:00:00 NR -17.60 82.40 2534 2498 _____O________ -1 -17.60 82.40 99 9.90 19 239
1865 SI MM 09:00:00 NR -18.15 81.47 2498 2384 _____P________ -1 -18.15 81.47 99 22 238
1865 SI MM 12:00:00 NR -18.74 80.47 2384 2271 _____P________ -1 -18.74 80.47 99 23 238
1865 SI MM 15:00:00 NR -19.37 79.42 2259 2149 _____P________ -1 -19.37 79.42 99 24 237
1865 SI MM 18:00:00 NR -20.01 78.36 2149 2040 _____P________ -1 -20.01 78.36 99 24 237
1865 SI MM 21:00:00 NR -20.64 77.32 2030 1935 _____P________ -1 -20.64 77.32 99 23 237
1865 SI MM 1865-02-15 00:00:00 NR -21.24 76.32 1924 1842 _____P________ -1 -21.24 76.32 99 21 237
1865 SI MM 03:00:00 NR -21.80 75.41 1832 1753 _____P________ -1 -21.80 75.41 99 19 237
1865 SI MM 06:00:00 NR -22.30 74.60 reunion 1753 1696 _____O________ -1 -22.30 74.60 99 9.90 16 236
1865 SI MM 09:00:00 NR -22.69 73.98 1696 1649 _____P________ -1 -22.69 73.98 99 13 235
1865 SI MM 12:00:00 NR -23.03 73.47 1649 1613 _____P________ -1 -23.03 73.47 99 11 234
1865 SI MM 15:00:00 NR -23.33 73.04 1603 1577 _____P________ -1 -23.33 73.04 99 9 232
1865 SI MM 18:00:00 NR -23.59 72.70 1579 1553 _____P________ -1 -23.59 72.70 99 8 229
1865 SI MM 21:00:00 NR -23.82 72.41 1553 1538 _____P________ -1 -23.82 72.41 99 6 227
1865 SI MM 1865-02-16 00:00:00 NR -24.03 72.18 1538 1523 _____P________ -1 -24.03 72.18 99 6 225
1865 SI MM 03:00:00 NR -24.22 71.98 1523 1509 _____P________ -1 -24.22 71.98 99 5 223
1865 SI MM 06:00:00 NR -24.40 71.80 reunion 1509 1496 _____O________ -1 -24.40 71.80 99 9.90 5 222
1865 SI MM 09:00:00 NR -24.57 71.63 1496 1489 _____P________ -1 -24.57 71.63 99 5 222
1865 SI MM 12:00:00 NR -24.74 71.46 1489 1476 _____P________ -1 -24.74 71.46 99 5 222
1865 SI MM 15:00:00 NR -24.91 71.29 1476 1464 _____P________ -1 -24.91 71.29 99 4 222
1865 SI MM 18:00:00 NR -25.07 71.13 1464 1458 _____P________ -1 -25.07 71.13 99 4 222
1865 SI MM 21:00:00 NR -25.23 70.97 1458 1447 _____P________ -1 -25.23 70.97 99 4 222
1865 SI MM 1865-02-17 00:00:00 NR -25.39 70.81 1447 1441 _____P________ -1 -25.39 70.81 99 4 222
1865 SI MM 03:00:00 NR -25.54 70.66 1441 1430 _____P________ -1 -25.54 70.66 99 4 222
1865 SI MM 06:00:00 NR -25.70 70.50 reunion 1430 _____O________ -1 -25.70 70.50 99 9.90 4 222